Time;durP1;ratioP1;P1;durP2;ratioP2;P2;SDS_P1;SDS_P2;PMS_P1;PMS_P2;Temp;Humidity;BMP_temperature;BMP_pressure;BME280_temperature;BME280_humidity;BME280_pressure;Samples;Min_cycle;Max_cycle;Signal;HPM_P1;HPM_P2
2020/12/04 00:00:11;;;;;;;16.80;9.82;;;4.80;98.30;;;;;;5016106;28;20160;-89
2020/12/04 00:02:37;;;;;;;13.82;10.15;;;4.80;98.20;;;;;;4999014;28;20037;-88
2020/12/04 00:05:04;;;;;;;15.07;9.25;;;4.80;98.20;;;;;;4998888;28;20022;-89
2020/12/04 00:07:30;;;;;;;14.40;9.68;;;4.80;98.10;;;;;;4998940;28;20018;-88
2020/12/04 00:09:55;;;;;;;13.48;8.70;;;4.80;98.10;;;;;;4998662;28;20558;-89
2020/12/04 00:12:21;;;;;;;13.32;9.40;;;4.80;97.90;;;;;;4998673;28;20087;-89
2020/12/04 00:14:47;;;;;;;15.25;9.82;;;4.80;98.00;;;;;;5015934;28;20108;-89
2020/12/04 00:17:12;;;;;;;12.73;8.93;;;4.80;97.90;;;;;;5016025;28;20104;-89
2020/12/04 00:19:38;;;;;;;13.38;8.15;;;4.80;98.00;;;;;;4997463;28;20030;-89
2020/12/04 00:22:03;;;;;;;14.05;8.65;;;4.80;98.00;;;;;;5016056;28;20030;-89
2020/12/04 00:24:29;;;;;;;13.20;8.35;;;4.80;97.90;;;;;;4998576;28;20049;-90
2020/12/04 00:26:58;;;;;;;11.73;8.27;;;4.80;97.80;;;;;;4998452;28;20382;-89
2020/12/04 00:29:27;;;;;;;13.70;8.20;;;4.90;97.90;;;;;;4998514;28;20068;-89
2020/12/04 00:31:54;;;;;;;10.90;7.38;;;4.80;97.80;;;;;;4998365;28;20030;-89
2020/12/04 00:34:20;;;;;;;11.95;7.97;;;4.80;97.60;;;;;;5015976;28;20165;-90
2020/12/04 00:36:47;;;;;;;13.38;8.52;;;4.80;97.70;;;;;;4998370;28;20029;-89
2020/12/04 00:39:13;;;;;;;13.15;8.32;;;4.80;97.80;;;;;;5015806;28;20108;-89
2020/12/04 00:41:38;;;;;;;10.80;7.95;;;4.80;97.80;;;;;;4998313;28;20192;-89
2020/12/04 00:44:04;;;;;;;11.93;7.47;;;4.80;97.80;;;;;;4998289;28;20037;-89
2020/12/04 00:46:29;;;;;;;13.73;8.40;;;4.80;97.70;;;;;;5015351;28;20076;-89
2020/12/04 00:48:55;;;;;;;12.52;8.38;;;4.80;97.70;;;;;;4998162;28;20025;-90
2020/12/04 00:51:20;;;;;;;11.00;7.95;;;4.80;97.80;;;;;;4998148;28;20057;-89
2020/12/04 00:53:46;;;;;;;13.02;8.88;;;4.80;97.70;;;;;;4998391;28;20038;-89
2020/12/04 00:56:12;;;;;;;13.70;8.32;;;4.80;97.80;;;;;;5015486;28;20473;-89
2020/12/04 00:58:37;;;;;;;12.43;7.78;;;4.80;97.70;;;;;;4998353;28;20033;-89
2020/12/04 01:01:03;;;;;;;12.50;8.70;;;4.80;97.80;;;;;;5015253;28;20033;-89
2020/12/04 01:03:29;;;;;;;13.38;9.02;;;4.80;97.70;;;;;;5015681;28;20030;-89
2020/12/04 01:05:55;;;;;;;13.32;9.30;;;4.80;97.70;;;;;;4997952;28;20029;-89
2020/12/04 01:08:21;;;;;;;12.48;8.23;;;4.80;97.80;;;;;;5015627;28;20037;-89
2020/12/04 01:10:47;;;;;;;12.57;8.10;;;4.80;97.80;;;;;;4997902;28;20022;-89
2020/12/04 01:13:13;;;;;;;11.95;7.90;;;4.80;97.60;;;;;;5015277;28;20036;-89
2020/12/04 01:15:38;;;;;;;15.25;8.75;;;4.80;97.60;;;;;;4997768;28;20022;-90
2020/12/04 01:18:04;;;;;;;11.98;7.75;;;4.80;97.80;;;;;;4997704;28;20392;-89
2020/12/04 01:20:30;;;;;;;12.77;8.43;;;4.80;97.80;;;;;;4997580;28;20072;-89
2020/12/04 01:22:55;;;;;;;13.35;8.70;;;4.80;98.00;;;;;;5014992;28;20042;-89
2020/12/04 01:25:21;;;;;;;13.43;8.90;;;4.70;98.00;;;;;;4997761;28;20030;-89
2020/12/04 01:27:46;;;;;;;18.35;9.57;;;4.80;98.10;;;;;;5015141;28;20105;-89
2020/12/04 01:30:12;;;;;;;13.52;9.07;;;4.80;98.10;;;;;;4997400;28;20049;-89
2020/12/04 01:32:38;;;;;;;11.52;8.35;;;4.70;98.20;;;;;;4997205;28;20057;-90
2020/12/04 01:35:03;;;;;;;14.80;8.48;;;4.70;98.20;;;;;;5014925;28;20026;-89
2020/12/04 01:37:30;;;;;;;15.75;9.52;;;4.70;98.20;;;;;;4997766;28;20025;-89
2020/12/04 01:39:55;;;;;;;13.75;9.38;;;4.70;98.20;;;;;;4997486;28;20025;-90
2020/12/04 01:42:21;;;;;;;15.30;10.10;;;4.70;98.40;;;;;;4997468;28;20116;-89
2020/12/04 01:44:46;;;;;;;15.60;10.10;;;4.70;98.30;;;;;;4997387;28;20026;-90
2020/12/04 01:47:12;;;;;;;16.38;9.32;;;4.70;98.50;;;;;;4997252;28;20133;-90
2020/12/04 01:49:38;;;;;;;15.18;8.05;;;4.70;98.70;;;;;;5014790;28;20474;-91
2020/12/04 01:52:04;;;;;;;13.48;8.98;;;4.60;98.70;;;;;;5014741;28;20088;-90
2020/12/04 01:54:31;;;;;;;18.20;9.98;;;4.60;98.70;;;;;;4997173;28;20029;-90
2020/12/04 01:56:57;;;;;;;15.38;9.45;;;4.60;98.80;;;;;;5014896;28;20053;-91
2020/12/04 01:59:22;;;;;;;15.48;9.98;;;4.60;99.20;;;;;;4997144;28;20022;-90
2020/12/04 02:01:49;;;;;;;13.82;8.20;;;4.60;99.10;;;;;;4997135;28;20062;-90
2020/12/04 02:04:15;;;;;;;13.95;9.23;;;4.60;99.20;;;;;;5014512;28;20022;-89
2020/12/04 02:06:50;;;;;;;12.80;8.27;;;4.60;99.30;;;;;;5014534;28;20101;-89
2020/12/04 02:09:41;;;;;;;14.32;9.38;;;4.60;99.40;;;;;;4997093;28;20429;-90
2020/12/04 02:12:08;;;;;;;13.98;9.15;;;4.60;99.40;;;;;;4997072;28;20469;-90
2020/12/04 02:14:34;;;;;;;16.17;9.00;;;4.60;99.50;;;;;;4998189;28;20101;-91
2020/12/04 02:17:01;;;;;;;13.32;9.02;;;4.50;99.40;;;;;;5014145;28;20037;-90
2020/12/04 02:19:27;;;;;;;12.98;9.13;;;4.60;99.60;;;;;;5014407;28;20018;-90
2020/12/04 02:21:54;;;;;;;14.48;9.52;;;4.50;99.60;;;;;;4996792;28;20029;-90
2020/12/04 02:24:26;;;;;;;14.05;8.93;;;4.50;99.70;;;;;;4996483;28;20041;-90
2020/12/04 02:26:53;;;;;;;12.75;8.57;;;4.50;99.80;;;;;;4996720;28;20029;-89
2020/12/04 02:29:19;;;;;;;13.68;9.27;;;4.50;99.80;;;;;;4996782;28;20041;-89
2020/12/04 02:31:44;;;;;;;14.07;9.00;;;4.50;99.80;;;;;;5014266;28;20066;-90
2020/12/04 02:34:10;;;;;;;13.60;8.65;;;4.50;99.90;;;;;;4996487;28;20030;-89
2020/12/04 02:36:35;;;;;;;14.85;9.05;;;4.50;99.90;;;;;;4996472;28;20030;-89
2020/12/04 02:39:01;;;;;;;14.98;9.52;;;4.50;99.90;;;;;;5013975;28;20030;-89
2020/12/04 02:41:26;;;;;;;14.05;9.48;;;4.50;99.90;;;;;;4996547;28;20504;-88
2020/12/04 02:43:52;;;;;;;14.18;8.48;;;4.50;99.80;;;;;;4998707;28;20474;-88
2020/12/04 02:46:17;;;;;;;14.88;8.82;;;4.50;99.80;;;;;;5000482;28;20022;-89
2020/12/04 02:48:43;;;;;;;13.95;8.85;;;4.50;99.90;;;;;;5017989;28;20466;-89
2020/12/04 02:51:08;;;;;;;13.48;8.45;;;4.50;99.90;;;;;;5000212;28;20022;-88
2020/12/04 02:53:34;;;;;;;13.10;8.57;;;4.50;99.90;;;;;;5000355;28;20028;-88
2020/12/04 02:56:00;;;;;;;12.48;8.00;;;4.50;99.90;;;;;;5017734;28;20026;-89
2020/12/04 02:58:26;;;;;;;14.25;8.70;;;4.50;99.80;;;;;;5017524;28;20026;-89
2020/12/04 03:00:51;;;;;;;12.95;7.85;;;4.50;99.80;;;;;;4999875;28;20037;-88
2020/12/04 03:03:17;;;;;;;13.77;8.50;;;4.50;99.80;;;;;;5000077;28;20480;-88
2020/12/04 03:05:42;;;;;;;10.57;6.95;;;4.50;99.70;;;;;;5017359;28;20029;-89
2020/12/04 03:08:08;;;;;;;11.52;7.65;;;4.50;99.80;;;;;;5000223;28;20026;-89
2020/12/04 03:10:33;;;;;;;11.95;7.55;;;4.50;99.90;;;;;;4999943;28;20021;-89
2020/12/04 03:12:59;;;;;;;12.23;7.88;;;4.50;99.90;;;;;;4999688;28;20030;-89
2020/12/04 03:15:25;;;;;;;9.95;7.65;;;4.50;99.80;;;;;;5017060;28;20057;-88
2020/12/04 03:17:50;;;;;;;11.73;7.07;;;4.60;99.80;;;;;;4999680;28;20030;-90
2020/12/04 03:20:16;;;;;;;10.85;6.75;;;4.60;99.70;;;;;;4999748;28;20026;-87
2020/12/04 03:22:41;;;;;;;10.68;6.97;;;4.50;99.60;;;;;;4999428;28;20036;-89
2020/12/04 03:25:07;;;;;;;9.55;7.03;;;4.50;99.40;;;;;;4999834;28;20029;-88
2020/12/04 03:27:33;;;;;;;10.88;6.80;;;4.50;99.50;;;;;;4999549;28;20088;-88
2020/12/04 03:29:58;;;;;;;11.00;7.28;;;4.60;99.50;;;;;;4999848;28;20026;-89
2020/12/04 03:32:24;;;;;;;11.45;7.00;;;4.60;99.40;;;;;;4999564;28;20121;-89
2020/12/04 03:34:49;;;;;;;12.65;7.95;;;4.60;99.40;;;;;;4999558;28;20026;-88
2020/12/04 03:37:15;;;;;;;10.07;6.35;;;4.60;99.10;;;;;;4999469;28;20018;-89
2020/12/04 03:39:40;;;;;;;9.00;6.35;;;4.70;99.10;;;;;;4999288;28;20018;-89
2020/12/04 03:42:06;;;;;;;9.57;5.75;;;4.70;99.10;;;;;;4999389;28;20029;-89
2020/12/04 03:44:31;;;;;;;10.82;5.72;;;4.70;98.90;;;;;;5016724;28;20121;-89
2020/12/04 03:46:57;;;;;;;9.05;5.35;;;4.80;98.70;;;;;;5016796;28;20080;-89
2020/12/04 03:49:23;;;;;;;9.57;5.80;;;4.80;98.80;;;;;;4999481;28;20018;-90
2020/12/04 03:51:48;;;;;;;10.15;6.90;;;4.70;98.70;;;;;;5016824;28;20053;-90
2020/12/04 03:54:14;;;;;;;12.75;6.47;;;4.80;98.80;;;;;;4999264;28;20096;-90
2020/12/04 03:56:40;;;;;;;11.20;6.88;;;4.80;98.90;;;;;;4999414;28;20030;-89
2020/12/04 03:59:06;;;;;;;10.75;7.10;;;4.70;99.00;;;;;;4999332;28;20022;-89
2020/12/04 04:01:32;;;;;;;9.90;6.30;;;4.80;99.20;;;;;;4999398;28;20128;-89
2020/12/04 04:03:57;;;;;;;9.57;6.97;;;4.70;99.00;;;;;;5016514;28;20029;-89
2020/12/04 04:06:23;;;;;;;10.10;6.65;;;4.80;99.10;;;;;;4999074;28;20022;-89
2020/12/04 04:08:49;;;;;;;11.73;6.63;;;4.70;99.00;;;;;;4998992;28;20067;-89
2020/12/04 04:11:14;;;;;;;8.98;5.70;;;4.80;99.10;;;;;;4999057;28;20025;-90
2020/12/04 04:13:40;;;;;;;10.13;6.40;;;4.80;99.00;;;;;;4998929;28;20018;-90
2020/12/04 04:16:05;;;;;;;7.60;5.35;;;4.80;98.90;;;;;;4999151;28;20029;-89
2020/12/04 04:18:32;;;;;;;8.90;5.63;;;4.80;99.00;;;;;;4998825;28;20026;-89
2020/12/04 04:20:59;;;;;;;8.52;5.57;;;4.80;98.90;;;;;;4998699;28;20026;-90
2020/12/04 04:23:24;;;;;;;7.22;5.07;;;4.90;99.00;;;;;;4998591;28;20493;-89
2020/12/04 04:25:50;;;;;;;7.05;4.78;;;4.90;98.90;;;;;;4998695;28;20032;-90
2020/12/04 04:28:15;;;;;;;7.05;4.28;;;4.90;98.80;;;;;;5016225;28;20428;-89
2020/12/04 04:30:41;;;;;;;7.15;4.30;;;4.90;98.60;;;;;;4998608;28;20132;-89
2020/12/04 04:33:07;;;;;;;7.82;5.03;;;5.00;98.50;;;;;;4998590;28;20057;-89
2020/12/04 04:35:33;;;;;;;9.45;5.10;;;5.00;98.40;;;;;;4998355;28;20040;-90
2020/12/04 04:37:59;;;;;;;6.68;4.70;;;5.00;98.40;;;;;;4998641;28;20026;-89
2020/12/04 04:40:25;;;;;;;7.68;4.90;;;5.00;98.10;;;;;;4998523;28;20049;-89
2020/12/04 04:43:14;;;;;;;6.28;3.97;;;5.00;98.00;;;;;;4998315;28;20072;-89
2020/12/04 04:45:43;;;;;;;5.63;3.40;;;5.10;98.00;;;;;;4998473;28;20065;-89
2020/12/04 04:48:16;;;;;;;6.30;3.60;;;5.00;97.90;;;;;;4998237;28;20053;-89
2020/12/04 04:50:44;;;;;;;5.18;3.30;;;5.00;97.80;;;;;;4998196;28;20064;-91
2020/12/04 04:53:10;;;;;;;6.38;3.92;;;5.10;97.70;;;;;;4998397;28;20061;-89
2020/12/04 04:55:40;;;;;;;5.85;3.80;;;5.10;97.70;;;;;;5015743;28;20054;-89
2020/12/04 04:58:06;;;;;;;6.15;3.90;;;5.10;97.60;;;;;;4998185;28;20026;-89
2020/12/04 05:00:32;;;;;;;6.38;3.65;;;5.10;97.70;;;;;;5010978;28;20049;-89
2020/12/04 05:02:58;;;;;;;6.97;3.67;;;5.10;97.60;;;;;;4978528;28;20026;-89
2020/12/04 05:05:43;;;;;;;4.63;3.20;;;5.10;97.70;;;;;;4978081;28;20548;-90
2020/12/04 05:08:15;;;;;;;4.40;2.72;;;5.00;97.60;;;;;;4978557;28;20114;-90
2020/12/04 05:10:41;;;;;;;4.70;2.78;;;5.00;97.60;;;;;;4996003;28;20066;-90
2020/12/04 05:13:07;;;;;;;4.53;2.97;;;5.10;97.60;;;;;;4978539;28;20027;-89
2020/12/04 05:15:33;;;;;;;5.25;3.00;;;5.00;97.60;;;;;;4978299;28;20113;-89
2020/12/04 05:17:59;;;;;;;4.22;2.53;;;5.10;97.60;;;;;;4978292;28;20168;-90
2020/12/04 05:20:24;;;;;;;5.25;2.92;;;5.10;97.60;;;;;;4978317;28;20026;-89
2020/12/04 05:22:55;;;;;;;4.35;2.85;;;5.10;97.60;;;;;;4974636;28;20046;-90
2020/12/04 05:25:20;;;;;;;5.82;3.22;;;5.10;97.40;;;;;;4976252;28;20045;-89
2020/12/04 05:27:46;;;;;;;4.30;2.47;;;5.10;97.40;;;;;;4974942;28;20467;-90
2020/12/04 05:30:24;;;;;;;4.70;2.45;;;5.10;97.40;;;;;;4974922;28;20126;-90
2020/12/04 05:33:00;;;;;;;4.93;2.47;;;5.10;97.40;;;;;;4974879;28;20424;-89
2020/12/04 05:35:27;;;;;;;4.40;2.40;;;5.10;97.40;;;;;;4974680;28;20037;-90
2020/12/04 05:38:06;;;;;;;4.95;2.42;;;5.10;97.40;;;;;;4974566;28;20089;-89
2020/12/04 05:40:34;;;;;;;3.65;2.47;;;5.20;97.30;;;;;;4974806;28;20031;-89
2020/12/04 05:43:00;;;;;;;2.97;2.08;;;5.20;97.20;;;;;;4974847;28;20061;-89
2020/12/04 05:45:26;;;;;;;4.63;2.50;;;5.20;97.10;;;;;;4974746;28;20057;-89
2020/12/04 05:47:51;;;;;;;6.22;2.40;;;5.20;97.10;;;;;;4974715;28;20119;-90
2020/12/04 05:50:17;;;;;;;3.75;2.08;;;5.20;97.20;;;;;;4974703;28;20027;-89
2020/12/04 05:52:42;;;;;;;3.78;2.08;;;5.10;97.20;;;;;;4974602;28;20034;-90
2020/12/04 05:55:10;;;;;;;3.75;1.90;;;5.20;97.20;;;;;;4974462;28;20030;-89
2020/12/04 05:57:55;;;;;;;4.93;2.42;;;5.10;97.10;;;;;;4974847;28;20113;-89
2020/12/04 06:00:22;;;;;;;2.75;1.83;;;5.20;97.10;;;;;;4974541;28;20031;-90
2020/12/04 06:02:58;;;;;;;4.20;2.70;;;5.20;97.10;;;;;;4974052;28;20483;-90
2020/12/04 06:05:28;;;;;;;4.72;2.72;;;5.20;97.20;;;;;;4985492;28;20066;-89
2020/12/04 06:08:11;;;;;;;;;;;5.20;97.10;;;;;;4993207;28;20018;-90
2020/12/04 06:10:37;;;;;;;3.08;2.05;;;5.20;97.10;;;;;;4993416;28;19979;-89
2020/12/04 06:13:03;;;;;;;4.28;2.35;;;5.10;97.20;;;;;;4993695;28;20074;-89
2020/12/04 06:15:32;;;;;;;3.25;1.92;;;5.20;97.20;;;;;;4994758;28;20057;-90
2020/12/04 06:18:06;;;;;;;2.83;1.83;;;5.20;97.20;;;;;;4992743;28;20033;-90
2020/12/04 06:20:47;;;;;;;3.45;1.75;;;5.20;97.20;;;;;;4993461;28;20577;-90
2020/12/04 06:23:18;;;;;;;4.20;2.00;;;5.30;97.10;;;;;;4992944;28;20460;-90
2020/12/04 06:25:55;;;;;;;4.60;2.80;;;5.40;97.10;;;;;;4987942;28;20046;-90
2020/12/04 06:28:30;;;;;;;3.47;1.98;;;5.40;96.90;;;;;;4973485;28;20070;-89
2020/12/04 06:31:01;;;;;;;3.42;1.63;;;5.40;97.00;;;;;;4973403;28;20027;-89
2020/12/04 06:33:43;;;;;;;3.13;2.17;;;5.40;96.80;;;;;;4974641;28;20390;-90
2020/12/04 06:36:10;;;;;;;3.53;2.03;;;5.40;96.80;;;;;;4973926;28;20089;-90
2020/12/04 06:38:38;;;;;;;2.92;1.88;;;5.40;96.80;;;;;;4973864;28;20023;-90
2020/12/04 06:41:20;;;;;;;2.65;1.38;;;5.50;96.90;;;;;;4974025;28;20114;-89
2020/12/04 06:43:48;;;;;;;5.13;1.83;;;5.50;96.80;;;;;;4974851;28;20026;-89
2020/12/04 06:46:36;;;;;;;2.60;1.60;;;5.50;96.80;;;;;;4974110;28;20046;-89
2020/12/04 06:49:22;;;;;;;3.15;1.95;;;5.60;96.70;;;;;;4973838;28;20031;-90
2020/12/04 06:52:01;;;;;;;4.15;2.17;;;5.60;96.70;;;;;;4973936;28;20031;-89
2020/12/04 06:54:28;;;;;;;5.43;1.58;;;5.60;96.60;;;;;;4973665;28;20042;-93
2020/12/04 06:56:55;;;;;;;4.07;1.88;;;5.60;96.60;;;;;;4973303;28;20475;-89
2020/12/04 06:59:28;;;;;;;3.55;1.58;;;5.70;96.60;;;;;;4976024;28;20026;-89
2020/12/04 07:02:09;;;;;;;2.83;1.38;;;5.70;96.50;;;;;;4981219;28;20057;-86
2020/12/04 07:04:37;;;;;;;2.67;1.50;;;5.80;96.30;;;;;;4985273;28;20050;-87
2020/12/04 07:07:05;;;;;;;2.90;1.45;;;5.80;96.30;;;;;;4981498;28;20034;-89
2020/12/04 07:09:31;;;;;;;2.25;1.05;;;5.80;96.20;;;;;;4983476;28;20022;-87
2020/12/04 07:11:58;;;;;;;2.25;1.63;;;5.80;96.10;;;;;;4982833;28;20452;-88
2020/12/04 07:14:24;;;;;;;2.25;1.10;;;5.90;96.00;;;;;;4983832;28;20031;-86
2020/12/04 07:16:50;;;;;;;2.55;1.08;;;5.90;95.90;;;;;;4982241;28;20026;-85
2020/12/04 07:19:16;;;;;;;1.90;0.85;;;6.00;95.80;;;;;;4982857;28;20034;-88
2020/12/04 07:21:41;;;;;;;2.67;0.90;;;6.00;95.80;;;;;;4981590;28;20019;-85
2020/12/04 07:24:07;;;;;;;2.25;0.90;;;6.10;95.70;;;;;;4980575;28;20053;-86
2020/12/04 07:26:34;;;;;;;2.03;0.80;;;6.20;95.50;;;;;;4984055;28;20022;-85
2020/12/04 07:28:59;;;;;;;1.52;0.90;;;6.30;95.50;;;;;;4982368;28;20097;-87
2020/12/04 07:31:25;;;;;;;2.38;0.63;;;6.30;95.30;;;;;;4985029;28;20022;-86
2020/12/04 07:33:59;;;;;;;0.93;0.52;;;6.30;95.10;;;;;;4986221;28;20026;-87
2020/12/04 07:36:26;;;;;;;1.67;0.80;;;6.40;95.00;;;;;;4984115;28;20022;-86
2020/12/04 07:38:57;;;;;;;3.55;0.73;;;6.40;94.90;;;;;;4986054;28;20164;-86
2020/12/04 07:41:32;;;;;;;1.67;0.73;;;6.50;94.90;;;;;;4985611;28;20062;-88
2020/12/04 07:44:01;;;;;;;1.27;0.70;;;6.40;94.80;;;;;;4985858;28;20018;-86
2020/12/04 07:46:27;;;;;;;0.77;0.47;;;6.40;94.80;;;;;;4986815;28;20168;-87
2020/12/04 07:49:08;;;;;;;1.23;0.68;;;6.40;94.80;;;;;;4985100;28;20023;-87
2020/12/04 07:51:39;;;;;;;2.17;0.70;;;6.50;94.70;;;;;;4985170;28;20026;-86
2020/12/04 07:54:17;;;;;;;2.30;1.15;;;6.50;94.60;;;;;;4983555;28;20386;-87
2020/12/04 07:56:51;;;;;;;2.03;0.57;;;6.50;94.80;;;;;;4984877;28;20029;-87
2020/12/04 07:59:24;;;;;;;1.60;0.60;;;6.50;94.70;;;;;;4984802;28;20027;-88
2020/12/04 08:01:50;;;;;;;2.95;0.70;;;6.60;94.60;;;;;;4983790;28;20027;-89
2020/12/04 08:04:19;;;;;;;4.82;1.02;;;6.60;94.60;;;;;;4987721;28;20073;-89
2020/12/04 08:06:47;;;;;;;1.38;0.63;;;6.60;94.70;;;;;;4989005;28;20026;-90
2020/12/04 08:09:18;;;;;;;0.90;0.60;;;6.60;94.80;;;;;;4988519;28;20026;-87
2020/12/04 08:11:55;;;;;;;1.27;0.50;;;6.60;94.70;;;;;;4984722;28;20109;-89
2020/12/04 08:14:26;;;;;;;1.05;0.57;;;6.60;94.60;;;;;;4985009;28;20022;-87
2020/12/04 08:17:01;;;;;;;1.10;0.40;;;6.60;94.60;;;;;;4983763;28;20029;-87
2020/12/04 08:19:31;;;;;;;0.93;0.30;;;6.70;94.30;;;;;;4989099;28;20026;-86
2020/12/04 08:22:10;;;;;;;2.28;0.40;;;6.80;93.70;;;;;;5001664;28;20023;-88
2020/12/04 08:24:39;;;;;;;2.05;0.20;;;7.00;92.30;;;;;;4983383;28;20042;-88
2020/12/04 08:27:13;;;;;;;0.20;0.10;;;7.10;91.50;;;;;;4990476;28;20094;-88
2020/12/04 08:29:42;;;;;;;0.82;0.20;;;7.20;91.20;;;;;;4989138;28;20037;-88
2020/12/04 08:32:19;;;;;;;3.28;0.20;;;7.30;91.00;;;;;;4989907;28;20018;-89
2020/12/04 08:34:46;;;;;;;2.10;0.10;;;7.30;90.60;;;;;;4979428;28;20077;-89
2020/12/04 08:37:13;;;;;;;1.02;0.20;;;7.40;90.90;;;;;;4994886;28;20030;-87
2020/12/04 08:39:43;;;;;;;1.20;0.38;;;7.40;91.20;;;;;;4994806;28;20029;-88
2020/12/04 08:42:20;;;;;;;2.90;0.25;;;7.40;91.40;;;;;;4993595;28;20054;-94
2020/12/04 08:44:57;;;;;;;0.40;0.10;;;7.50;90.80;;;;;;4994171;28;20061;-85
2020/12/04 08:47:41;;;;;;;2.42;0.15;;;7.60;90.60;;;;;;4989545;28;20025;-86
2020/12/04 08:50:19;;;;;;;1.00;0.20;;;7.60;90.40;;;;;;4997742;28;20449;-85
2020/12/04 08:52:55;;;;;;;1.27;0.17;;;7.70;90.00;;;;;;4988700;28;20085;-86
2020/12/04 08:55:23;;;;;;;1.75;0.13;;;7.70;88.20;;;;;;4984625;28;20050;-85
2020/12/04 08:57:51;;;;;;;1.95;0.57;;;7.70;87.90;;;;;;4982526;28;20533;-85
2020/12/04 09:00:19;;;;;;;2.63;0.10;;;7.70;87.90;;;;;;4983935;28;20041;-85
2020/12/04 09:02:45;;;;;;;0.35;0.10;;;7.80;88.40;;;;;;4989238;28;20062;-84
2020/12/04 09:05:16;;;;;;;0.25;0.10;;;7.70;89.20;;;;;;4983049;28;20050;-85
2020/12/04 09:07:42;;;;;;;1.58;0.10;;;7.70;89.40;;;;;;5000943;28;20026;-85
2020/12/04 09:10:14;;;;;;;1.92;0.10;;;7.70;89.90;;;;;;4984476;28;20481;-85
2020/12/04 09:12:40;;;;;;;0.40;0.10;;;7.70;89.40;;;;;;4990070;28;20049;-87
2020/12/04 09:15:07;;;;;;;0.30;0.10;;;7.80;89.40;;;;;;4990484;28;20098;-87
2020/12/04 09:17:33;;;;;;;0.85;0.10;;;7.80;89.20;;;;;;4986932;28;20030;-85
2020/12/04 09:19:59;;;;;;;3.58;0.20;;;7.80;87.40;;;;;;4984231;28;20051;-85
2020/12/04 09:22:25;;;;;;;0.10;0.10;;;7.70;87.00;;;;;;4984238;28;20430;-85
2020/12/04 09:24:50;;;;;;;1.75;0.20;;;7.70;86.30;;;;;;5004316;28;20028;-85
2020/12/04 09:27:16;;;;;;;0.50;0.20;;;7.70;88.00;;;;;;4986140;28;20022;-85
2020/12/04 09:29:42;;;;;;;0.30;0.10;;;7.70;87.20;;;;;;4986109;28;20030;-85
2020/12/04 09:32:17;;;;;;;0.60;0.20;;;7.70;86.90;;;;;;4988118;28;20029;-85
2020/12/04 09:34:44;;;;;;;0.40;0.20;;;7.70;87.70;;;;;;4986030;28;20030;-85
2020/12/04 09:37:19;;;;;;;0.50;0.10;;;7.70;88.20;;;;;;4989148;28;20029;-85
2020/12/04 09:39:47;;;;;;;0.60;0.20;;;7.70;88.00;;;;;;5006772;28;20076;-85
2020/12/04 09:42:17;;;;;;;0.30;0.13;;;7.70;87.10;;;;;;4989031;28;20030;-85
2020/12/04 09:44:43;;;;;;;;;;;7.70;85.90;;;;;;5006734;28;20055;-85
2020/12/04 09:47:08;;;;;;;0.43;0.20;;;7.60;86.40;;;;;;4988199;28;19988;-85
2020/12/04 09:49:34;;;;;;;0.20;0.10;;;7.50;86.20;;;;;;5006611;28;20121;-85
2020/12/04 09:52:01;;;;;;;0.43;0.20;;;7.50;85.90;;;;;;4988143;28;20073;-85
2020/12/04 09:54:31;;;;;;;1.23;0.10;;;7.50;86.30;;;;;;4984576;28;20325;-86
2020/12/04 09:56:57;;;;;;;2.38;0.20;;;7.50;86.10;;;;;;5007654;28;20021;-86
2020/12/04 09:59:25;;;;;;;0.57;0.20;;;7.50;87.20;;;;;;4990645;28;20111;-85
2020/12/04 10:01:52;;;;;;;1.40;0.20;;;7.50;87.70;;;;;;4988878;28;20029;-86
2020/12/04 10:04:18;;;;;;;0.43;0.20;;;7.60;88.40;;;;;;4988337;28;20050;-86
2020/12/04 10:06:47;;;;;;;0.60;0.30;;;7.60;88.10;;;;;;4987280;28;20029;-87
2020/12/04 10:09:14;;;;;;;1.30;0.10;;;7.70;88.00;;;;;;5008616;28;20022;-86
2020/12/04 10:11:39;;;;;;;0.40;0.20;;;7.80;88.60;;;;;;5015471;28;20071;-87
2020/12/04 10:14:05;;;;;;;2.08;0.30;;;7.90;86.40;;;;;;5015174;28;20025;-86
2020/12/04 10:16:31;;;;;;;0.88;0.10;;;8.00;85.30;;;;;;5014751;28;20033;-86
2020/12/04 10:18:58;;;;;;;0.30;0.20;;;8.20;86.00;;;;;;5014616;28;20061;-86
2020/12/04 10:21:31;;;;;;;0.10;0.10;;;8.30;84.90;;;;;;4992234;28;20025;-86
2020/12/04 10:23:56;;;;;;;0.40;0.15;;;8.50;84.60;;;;;;4987928;28;20037;-86
2020/12/04 10:26:22;;;;;;;0.40;0.15;;;8.70;82.50;;;;;;4987032;28;20036;-87
2020/12/04 10:28:47;;;;;;;0.55;0.20;;;8.80;81.30;;;;;;5012959;28;20026;-87
2020/12/04 10:31:13;;;;;;;0.43;0.10;;;8.80;80.50;;;;;;5012943;28;20018;-86
2020/12/04 10:33:39;;;;;;;0.63;0.20;;;8.60;80.50;;;;;;5010539;28;20041;-87
2020/12/04 10:36:05;;;;;;;0.40;0.15;;;8.50;80.90;;;;;;5000464;28;20033;-86
2020/12/04 10:38:31;;;;;;;0.95;0.17;;;8.40;79.60;;;;;;4994883;28;20064;-86
2020/12/04 10:40:58;;;;;;;0.25;0.10;;;8.20;79.60;;;;;;5012877;28;20076;-87
2020/12/04 10:43:24;;;;;;;1.05;0.20;;;8.20;79.10;;;;;;4995247;28;20058;-87
2020/12/04 10:45:50;;;;;;;0.40;0.20;;;8.10;80.50;;;;;;4995063;28;20026;-87
2020/12/04 10:48:16;;;;;;;0.73;0.20;;;8.10;81.50;;;;;;4995194;28;20018;-87
2020/12/04 10:50:44;;;;;;;0.47;0.30;;;8.10;80.40;;;;;;4995617;28;20018;-87
2020/12/04 10:53:10;;;;;;;0.85;0.20;;;8.20;80.10;;;;;;4995843;28;20399;-86
2020/12/04 10:55:35;;;;;;;2.58;0.20;;;8.20;81.20;;;;;;5013020;28;20112;-86
2020/12/04 10:58:01;;;;;;;0.98;0.20;;;8.10;82.40;;;;;;4998924;28;20057;-87
2020/12/04 11:00:26;;;;;;;0.30;0.13;;;8.20;80.50;;;;;;5013721;28;20029;-87
2020/12/04 11:02:57;;;;;;;0.57;0.15;;;8.60;80.80;;;;;;5014250;28;20504;-87
2020/12/04 11:05:32;;;;;;;0.20;0.10;;;9.00;79.70;;;;;;5018442;28;20028;-88
2020/12/04 11:07:58;;;;;;;0.28;0.20;;;8.90;78.00;;;;;;5018941;28;20108;-87
2020/12/04 11:10:24;;;;;;;1.20;0.25;;;8.90;77.70;;;;;;5036969;28;20026;-89
2020/12/04 11:12:50;;;;;;;0.80;0.15;;;8.80;79.00;;;;;;5019128;28;20029;-89
2020/12/04 11:15:16;;;;;;;1.00;0.20;;;8.90;78.20;;;;;;5019248;28;20069;-88
2020/12/04 11:17:41;;;;;;;0.40;0.20;;;8.90;78.10;;;;;;5036408;28;20030;-88
2020/12/04 11:20:07;;;;;;;0.30;0.20;;;8.80;78.10;;;;;;5018901;28;20025;-87
2020/12/04 11:22:34;;;;;;;1.42;0.17;;;8.70;78.60;;;;;;5002517;28;20417;-87
2020/12/04 11:25:00;;;;;;;0.50;0.20;;;8.80;80.20;;;;;;4988121;28;20515;-87
2020/12/04 11:27:26;;;;;;;0.98;0.10;;;8.80;79.00;;;;;;4995264;28;20488;-88
2020/12/04 11:29:52;;;;;;;0.25;0.20;;;8.70;76.80;;;;;;4994098;28;20026;-88
2020/12/04 11:32:17;;;;;;;1.02;0.20;;;8.70;77.20;;;;;;4994214;28;20017;-87
2020/12/04 11:34:43;;;;;;;0.20;0.10;;;8.50;78.20;;;;;;4987554;28;20110;-88
2020/12/04 11:37:10;;;;;;;0.93;0.28;;;8.50;78.40;;;;;;4987845;28;20121;-88
2020/12/04 11:39:39;;;;;;;1.77;0.20;;;8.50;78.80;;;;;;4988382;28;20034;-87
2020/12/04 11:42:05;;;;;;;0.30;0.20;;;8.40;81.00;;;;;;4989510;28;20026;-87
2020/12/04 11:44:30;;;;;;;0.45;0.20;;;8.40;79.70;;;;;;4987725;28;20018;-89
2020/12/04 11:46:56;;;;;;;0.52;0.20;;;8.40;79.90;;;;;;4988554;28;20025;-87
2020/12/04 11:49:21;;;;;;;0.65;0.20;;;8.40;81.00;;;;;;4986466;28;20544;-87
2020/12/04 11:51:47;;;;;;;2.13;0.20;;;8.30;80.10;;;;;;5007787;28;20076;-87
2020/12/04 11:54:12;;;;;;;2.58;0.30;;;8.30;80.70;;;;;;4986951;28;20046;-86
2020/12/04 11:56:38;;;;;;;0.20;0.10;;;8.20;80.10;;;;;;4996409;28;20072;-90
2020/12/04 11:59:03;;;;;;;1.45;0.38;;;8.20;81.20;;;;;;5012907;28;20080;-89
2020/12/04 12:01:29;;;;;;;0.40;0.20;;;8.10;82.70;;;;;;5030536;28;20036;-90
2020/12/04 12:03:54;;;;;;;0.70;0.30;;;8.10;82.40;;;;;;5018417;28;20052;-89
2020/12/04 12:06:20;;;;;;;1.13;0.30;;;8.10;82.50;;;;;;5036616;28;20034;-90
2020/12/04 12:08:45;;;;;;;1.73;1.30;;;8.10;83.50;;;;;;5018846;28;20021;-90
2020/12/04 12:11:11;;;;;;;1.08;0.30;;;8.00;83.20;;;;;;5018870;28;20472;-86
2020/12/04 12:13:36;;;;;;;0.45;0.30;;;8.00;82.70;;;;;;5035679;28;20529;-87
2020/12/04 12:16:06;;;;;;;1.02;0.30;;;8.00;82.90;;;;;;5017885;28;20025;-88
2020/12/04 12:18:32;;;;;;;0.77;0.20;;;8.10;83.10;;;;;;5009628;28;20025;-86
2020/12/04 12:20:57;;;;;;;0.90;0.20;;;8.00;83.70;;;;;;5008133;28;20037;-88
2020/12/04 12:23:23;;;;;;;4.32;0.40;;;8.00;83.90;;;;;;4978175;28;20525;-88
2020/12/04 12:25:48;;;;;;;0.77;0.30;;;8.00;84.50;;;;;;4980615;28;20022;-89
2020/12/04 12:28:13;;;;;;;0.32;0.30;;;8.00;85.90;;;;;;4988193;28;20046;-91
2020/12/04 12:30:40;;;;;;;2.92;0.30;;;8.00;85.80;;;;;;4998476;28;20576;-87
2020/12/04 12:33:05;;;;;;;0.82;0.13;;;7.90;85.60;;;;;;5000780;28;20040;-85
2020/12/04 12:35:31;;;;;;;0.63;0.30;;;7.90;86.30;;;;;;5006133;28;20034;-86
2020/12/04 12:37:56;;;;;;;0.90;0.40;;;7.90;86.40;;;;;;4977884;28;20134;-84
2020/12/04 12:40:22;;;;;;;3.30;0.30;;;7.90;86.20;;;;;;4980108;28;20426;-86
2020/12/04 12:42:47;;;;;;;0.82;0.30;;;7.90;86.60;;;;;;4977618;28;20397;-86
2020/12/04 12:45:14;;;;;;;0.77;0.30;;;7.90;86.70;;;;;;4982322;28;20085;-85
2020/12/04 12:47:40;;;;;;;1.25;0.38;;;7.90;86.90;;;;;;4988780;28;20080;-85
2020/12/04 12:50:07;;;;;;;2.10;0.40;;;7.90;87.50;;;;;;4990180;28;20362;-85
2020/12/04 12:52:33;;;;;;;1.48;0.40;;;8.00;85.20;;;;;;4986969;28;20026;-85
2020/12/04 12:55:01;;;;;;;0.55;0.20;;;8.10;83.60;;;;;;4989328;28;20551;-85
2020/12/04 12:57:27;;;;;;;8.20;0.57;;;8.10;83.40;;;;;;4991743;28;20109;-85